sensor_id;sensor_type;location;lat;lon;timestamp;P1;durP1;ratioP1;P2;durP2;ratioP2
35699;SDS011;21818;51.078;12.108;2023-02-28T00:01:19;1.85;;;0.30;;
35699;SDS011;21818;51.078;12.108;2023-02-28T00:03:45;1.20;;;0.65;;
35699;SDS011;21818;51.078;12.108;2023-02-28T00:06:11;0.40;;;0.30;;
35699;SDS011;21818;51.078;12.108;2023-02-28T00:08:37;0.77;;;0.35;;
35699;SDS011;21818;51.078;12.108;2023-02-28T00:11:04;0.68;;;0.30;;
35699;SDS011;21818;51.078;12.108;2023-02-28T00:13:33;1.80;;;0.35;;
35699;SDS011;21818;51.078;12.108;2023-02-28T00:16:02;0.75;;;0.25;;
35699;SDS011;21818;51.078;12.108;2023-02-28T00:18:29;2.10;;;0.43;;
35699;SDS011;21818;51.078;12.108;2023-02-28T00:20:55;0.38;;;0.25;;
35699;SDS011;21818;51.078;12.108;2023-02-28T00:23:20;0.40;;;0.30;;
35699;SDS011;21818;51.078;12.108;2023-02-28T00:25:46;1.52;;;0.30;;
35699;SDS011;21818;51.078;12.108;2023-02-28T00:28:11;0.35;;;0.28;;
35699;SDS011;21818;51.078;12.108;2023-02-28T00:30:37;2.03;;;0.30;;
35699;SDS011;21818;51.078;12.108;2023-02-28T00:33:02;1.20;;;0.30;;
35699;SDS011;21818;51.078;12.108;2023-02-28T00:35:28;1.08;;;0.30;;
35699;SDS011;21818;51.078;12.108;2023-02-28T00:37:53;0.47;;;0.30;;
35699;SDS011;21818;51.078;12.108;2023-02-28T00:40:19;0.47;;;0.35;;
35699;SDS011;21818;51.078;12.108;2023-02-28T00:42:44;1.00;;;0.32;;
35699;SDS011;21818;51.078;12.108;2023-02-28T00:45:10;1.30;;;0.30;;
35699;SDS011;21818;51.078;12.108;2023-02-28T00:47:36;0.90;;;0.40;;
35699;SDS011;21818;51.078;12.108;2023-02-28T00:50:01;0.28;;;0.22;;
35699;SDS011;21818;51.078;12.108;2023-02-28T00:52:28;1.33;;;0.57;;
35699;SDS011;21818;51.078;12.108;2023-02-28T00:54:54;2.15;;;0.20;;
35699;SDS011;21818;51.078;12.108;2023-02-28T00:57:19;1.38;;;0.20;;
35699;SDS011;21818;51.078;12.108;2023-02-28T00:59:45;0.68;;;0.40;;
35699;SDS011;21818;51.078;12.108;2023-02-28T01:02:11;1.45;;;0.28;;
35699;SDS011;21818;51.078;12.108;2023-02-28T01:04:36;0.57;;;0.30;;
35699;SDS011;21818;51.078;12.108;2023-02-28T01:07:02;0.45;;;0.25;;
35699;SDS011;21818;51.078;12.108;2023-02-28T01:09:27;2.25;;;0.40;;
35699;SDS011;21818;51.078;12.108;2023-02-28T01:11:53;0.52;;;0.30;;
35699;SDS011;21818;51.078;12.108;2023-02-28T01:14:19;0.55;;;0.20;;
35699;SDS011;21818;51.078;12.108;2023-02-28T01:16:44;0.93;;;0.30;;
35699;SDS011;21818;51.078;12.108;2023-02-28T01:19:10;0.82;;;0.30;;
35699;SDS011;21818;51.078;12.108;2023-02-28T01:21:35;0.85;;;0.20;;
35699;SDS011;21818;51.078;12.108;2023-02-28T01:24:02;1.70;;;0.50;;
35699;SDS011;21818;51.078;12.108;2023-02-28T01:26:28;0.22;;;0.17;;
35699;SDS011;21818;51.078;12.108;2023-02-28T01:28:54;0.82;;;0.28;;
35699;SDS011;21818;51.078;12.108;2023-02-28T01:31:20;0.47;;;0.20;;
35699;SDS011;21818;51.078;12.108;2023-02-28T01:33:47;3.10;;;0.73;;
35699;SDS011;21818;51.078;12.108;2023-02-28T01:36:13;0.70;;;0.25;;
35699;SDS011;21818;51.078;12.108;2023-02-28T01:38:41;0.55;;;0.40;;
35699;SDS011;21818;51.078;12.108;2023-02-28T01:41:08;0.35;;;0.30;;
35699;SDS011;21818;51.078;12.108;2023-02-28T01:46:14;0.70;;;0.30;;
35699;SDS011;21818;51.078;12.108;2023-02-28T01:48:44;3.78;;;0.28;;
35699;SDS011;21818;51.078;12.108;2023-02-28T01:51:16;0.75;;;0.30;;
35699;SDS011;21818;51.078;12.108;2023-02-28T01:53:51;0.80;;;0.30;;
35699;SDS011;21818;51.078;12.108;2023-02-28T01:56:22;0.90;;;0.32;;
35699;SDS011;21818;51.078;12.108;2023-02-28T01:58:51;1.02;;;0.40;;
35699;SDS011;21818;51.078;12.108;2023-02-28T02:01:19;1.45;;;1.20;;
35699;SDS011;21818;51.078;12.108;2023-02-28T02:03:56;0.73;;;0.45;;
35699;SDS011;21818;51.078;12.108;2023-02-28T02:06:46;0.20;;;0.17;;
35699;SDS011;21818;51.078;12.108;2023-02-28T02:09:12;0.32;;;0.20;;
35699;SDS011;21818;51.078;12.108;2023-02-28T02:11:39;0.90;;;0.30;;
35699;SDS011;21818;51.078;12.108;2023-02-28T02:14:19;0.75;;;0.20;;
35699;SDS011;21818;51.078;12.108;2023-02-28T02:22:11;0.60;;;0.30;;
35699;SDS011;21818;51.078;12.108;2023-02-28T02:32:54;1.00;;;0.13;;
35699;SDS011;21818;51.078;12.108;2023-02-28T02:35:59;0.68;;;0.32;;
35699;SDS011;21818;51.078;12.108;2023-02-28T02:38:39;0.63;;;0.30;;
35699;SDS011;21818;51.078;12.108;2023-02-28T02:41:10;0.60;;;0.30;;
35699;SDS011;21818;51.078;12.108;2023-02-28T02:43:54;0.80;;;0.20;;
35699;SDS011;21818;51.078;12.108;2023-02-28T02:46:29;3.67;;;0.50;;
35699;SDS011;21818;51.078;12.108;2023-02-28T02:51:26;0.98;;;0.28;;
35699;SDS011;21818;51.078;12.108;2023-02-28T02:53:57;1.35;;;0.38;;
35699;SDS011;21818;51.078;12.108;2023-02-28T02:56:33;2.30;;;0.50;;
35699;SDS011;21818;51.078;12.108;2023-02-28T02:59:02;0.13;;;0.10;;
35699;SDS011;21818;51.078;12.108;2023-02-28T03:01:31;0.90;;;0.32;;
35699;SDS011;21818;51.078;12.108;2023-02-28T03:04:09;0.73;;;0.40;;
35699;SDS011;21818;51.078;12.108;2023-02-28T03:06:40;0.47;;;0.30;;
35699;SDS011;21818;51.078;12.108;2023-02-28T03:09:06;0.40;;;0.25;;
35699;SDS011;21818;51.078;12.108;2023-02-28T03:11:32;0.45;;;0.28;;
35699;SDS011;21818;51.078;12.108;2023-02-28T03:21:43;0.20;;;0.20;;
35699;SDS011;21818;51.078;12.108;2023-02-28T03:24:39;1.27;;;0.40;;
35699;SDS011;21818;51.078;12.108;2023-02-28T03:27:16;0.30;;;0.20;;
35699;SDS011;21818;51.078;12.108;2023-02-28T03:29:45;0.63;;;0.20;;
35699;SDS011;21818;51.078;12.108;2023-02-28T03:32:18;1.20;;;0.35;;
35699;SDS011;21818;51.078;12.108;2023-02-28T03:37:48;2.33;;;0.60;;
35699;SDS011;21818;51.078;12.108;2023-02-28T03:40:18;0.52;;;0.22;;
35699;SDS011;21818;51.078;12.108;2023-02-28T03:42:48;0.57;;;0.20;;
35699;SDS011;21818;51.078;12.108;2023-02-28T03:45:27;0.63;;;0.30;;
35699;SDS011;21818;51.078;12.108;2023-02-28T03:50:40;0.88;;;0.38;;
35699;SDS011;21818;51.078;12.108;2023-02-28T03:55:45;1.58;;;0.40;;
35699;SDS011;21818;51.078;12.108;2023-02-28T04:01:13;0.90;;;0.40;;
35699;SDS011;21818;51.078;12.108;2023-02-28T04:03:45;1.10;;;0.38;;
35699;SDS011;21818;51.078;12.108;2023-02-28T04:06:17;0.80;;;0.28;;
35699;SDS011;21818;51.078;12.108;2023-02-28T04:08:44;0.55;;;0.17;;
35699;SDS011;21818;51.078;12.108;2023-02-28T04:13:42;0.85;;;0.30;;
35699;SDS011;21818;51.078;12.108;2023-02-28T04:16:08;0.40;;;0.20;;
35699;SDS011;21818;51.078;12.108;2023-02-28T04:18:36;0.43;;;0.30;;
35699;SDS011;21818;51.078;12.108;2023-02-28T04:21:06;0.60;;;0.20;;
35699;SDS011;21818;51.078;12.108;2023-02-28T04:23:32;0.43;;;0.20;;
35699;SDS011;21818;51.078;12.108;2023-02-28T04:25:58;1.75;;;0.20;;
35699;SDS011;21818;51.078;12.108;2023-02-28T04:28:23;0.50;;;0.20;;
35699;SDS011;21818;51.078;12.108;2023-02-28T04:30:59;0.75;;;0.30;;
35699;SDS011;21818;51.078;12.108;2023-02-28T04:33:27;0.45;;;0.20;;
35699;SDS011;21818;51.078;12.108;2023-02-28T04:36:06;0.50;;;0.20;;
35699;SDS011;21818;51.078;12.108;2023-02-28T04:38:34;0.30;;;0.20;;
35699;SDS011;21818;51.078;12.108;2023-02-28T04:41:01;0.65;;;0.20;;
35699;SDS011;21818;51.078;12.108;2023-02-28T04:43:27;0.50;;;0.30;;
35699;SDS011;21818;51.078;12.108;2023-02-28T04:45:54;0.70;;;0.30;;
35699;SDS011;21818;51.078;12.108;2023-02-28T04:48:24;1.45;;;0.50;;
35699;SDS011;21818;51.078;12.108;2023-02-28T04:50:51;0.43;;;0.30;;
35699;SDS011;21818;51.078;12.108;2023-02-28T04:53:17;0.95;;;0.30;;
35699;SDS011;21818;51.078;12.108;2023-02-28T04:55:44;1.40;;;0.35;;
35699;SDS011;21818;51.078;12.108;2023-02-28T04:58:10;0.60;;;0.25;;
35699;SDS011;21818;51.078;12.108;2023-02-28T05:00:35;0.82;;;0.40;;
35699;SDS011;21818;51.078;12.108;2023-02-28T05:03:01;0.38;;;0.20;;
35699;SDS011;21818;51.078;12.108;2023-02-28T05:05:26;0.60;;;0.20;;
35699;SDS011;21818;51.078;12.108;2023-02-28T05:07:52;0.45;;;0.20;;
35699;SDS011;21818;51.078;12.108;2023-02-28T05:10:18;1.25;;;0.28;;
35699;SDS011;21818;51.078;12.108;2023-02-28T05:12:44;0.57;;;0.22;;
35699;SDS011;21818;51.078;12.108;2023-02-28T05:15:13;1.02;;;0.30;;
35699;SDS011;21818;51.078;12.108;2023-02-28T05:17:39;0.40;;;0.20;;
35699;SDS011;21818;51.078;12.108;2023-02-28T05:20:05;0.60;;;0.30;;
35699;SDS011;21818;51.078;12.108;2023-02-28T05:22:32;0.40;;;0.20;;
35699;SDS011;21818;51.078;12.108;2023-02-28T05:24:57;0.68;;;0.22;;
35699;SDS011;21818;51.078;12.108;2023-02-28T05:27:23;0.57;;;0.20;;
35699;SDS011;21818;51.078;12.108;2023-02-28T05:29:49;0.20;;;0.20;;
35699;SDS011;21818;51.078;12.108;2023-02-28T05:32:14;0.47;;;0.30;;
35699;SDS011;21818;51.078;12.108;2023-02-28T05:34:40;0.73;;;0.25;;
35699;SDS011;21818;51.078;12.108;2023-02-28T05:37:07;0.32;;;0.20;;
35699;SDS011;21818;51.078;12.108;2023-02-28T05:39:37;0.35;;;0.20;;
35699;SDS011;21818;51.078;12.108;2023-02-28T05:42:02;0.52;;;0.28;;
35699;SDS011;21818;51.078;12.108;2023-02-28T05:44:28;0.88;;;0.30;;
35699;SDS011;21818;51.078;12.108;2023-02-28T05:46:54;0.35;;;0.20;;
35699;SDS011;21818;51.078;12.108;2023-02-28T05:49:19;0.52;;;0.20;;
35699;SDS011;21818;51.078;12.108;2023-02-28T05:51:45;0.28;;;0.15;;
35699;SDS011;21818;51.078;12.108;2023-02-28T05:54:10;0.32;;;0.20;;
35699;SDS011;21818;51.078;12.108;2023-02-28T05:56:36;0.40;;;0.20;;
35699;SDS011;21818;51.078;12.108;2023-02-28T05:59:04;0.40;;;0.30;;
35699;SDS011;21818;51.078;12.108;2023-02-28T06:03:59;7.30;;;2.30;;
35699;SDS011;21818;51.078;12.108;2023-02-28T06:06:25;2.42;;;1.50;;
35699;SDS011;21818;51.078;12.108;2023-02-28T06:08:51;2.20;;;1.38;;
35699;SDS011;21818;51.078;12.108;2023-02-28T06:11:16;3.13;;;1.83;;
35699;SDS011;21818;51.078;12.108;2023-02-28T06:13:44;3.03;;;1.50;;
35699;SDS011;21818;51.078;12.108;2023-02-28T06:16:10;3.63;;;1.90;;
35699;SDS011;21818;51.078;12.108;2023-02-28T06:18:36;5.95;;;2.60;;
35699;SDS011;21818;51.078;12.108;2023-02-28T06:21:02;5.35;;;2.63;;
35699;SDS011;21818;51.078;12.108;2023-02-28T06:23:28;5.00;;;2.17;;
35699;SDS011;21818;51.078;12.108;2023-02-28T06:25:53;4.25;;;2.20;;
35699;SDS011;21818;51.078;12.108;2023-02-28T06:28:22;4.65;;;3.05;;
35699;SDS011;21818;51.078;12.108;2023-02-28T06:30:48;9.05;;;2.40;;
35699;SDS011;21818;51.078;12.108;2023-02-28T06:33:13;15.27;;;4.03;;
35699;SDS011;21818;51.078;12.108;2023-02-28T06:35:39;10.85;;;2.70;;
35699;SDS011;21818;51.078;12.108;2023-02-28T06:38:04;7.13;;;3.13;;
35699;SDS011;21818;51.078;12.108;2023-02-28T06:40:30;7.45;;;2.40;;
35699;SDS011;21818;51.078;12.108;2023-02-28T06:42:59;8.40;;;2.65;;
35699;SDS011;21818;51.078;12.108;2023-02-28T06:45:24;5.97;;;2.20;;
35699;SDS011;21818;51.078;12.108;2023-02-28T06:47:51;8.45;;;2.70;;
35699;SDS011;21818;51.078;12.108;2023-02-28T06:50:17;6.65;;;2.22;;
35699;SDS011;21818;51.078;12.108;2023-02-28T06:52:44;10.05;;;2.28;;
35699;SDS011;21818;51.078;12.108;2023-02-28T06:55:10;5.10;;;2.13;;
35699;SDS011;21818;51.078;12.108;2023-02-28T06:57:35;7.85;;;2.40;;
35699;SDS011;21818;51.078;12.108;2023-02-28T07:00:03;5.68;;;2.10;;
35699;SDS011;21818;51.078;12.108;2023-02-28T07:02:32;9.50;;;2.60;;
35699;SDS011;21818;51.078;12.108;2023-02-28T07:04:58;8.73;;;2.42;;
35699;SDS011;21818;51.078;12.108;2023-02-28T07:07:23;7.25;;;2.92;;
35699;SDS011;21818;51.078;12.108;2023-02-28T07:09:49;7.07;;;2.03;;
35699;SDS011;21818;51.078;12.108;2023-02-28T07:12:15;8.75;;;2.25;;
35699;SDS011;21818;51.078;12.108;2023-02-28T07:14:40;8.73;;;2.22;;
35699;SDS011;21818;51.078;12.108;2023-02-28T07:17:06;6.15;;;2.28;;
35699;SDS011;21818;51.078;12.108;2023-02-28T07:19:33;5.53;;;2.13;;
35699;SDS011;21818;51.078;12.108;2023-02-28T07:21:58;5.72;;;2.20;;
35699;SDS011;21818;51.078;12.108;2023-02-28T07:24:24;9.25;;;2.20;;
35699;SDS011;21818;51.078;12.108;2023-02-28T07:26:53;7.45;;;1.88;;
35699;SDS011;21818;51.078;12.108;2023-02-28T07:29:18;8.52;;;2.00;;
35699;SDS011;21818;51.078;12.108;2023-02-28T07:31:44;6.82;;;1.80;;
35699;SDS011;21818;51.078;12.108;2023-02-28T07:34:11;4.60;;;2.20;;
35699;SDS011;21818;51.078;12.108;2023-02-28T07:36:37;9.80;;;2.45;;
35699;SDS011;21818;51.078;12.108;2023-02-28T07:39:02;6.32;;;2.17;;
35699;SDS011;21818;51.078;12.108;2023-02-28T07:41:29;6.45;;;1.98;;
35699;SDS011;21818;51.078;12.108;2023-02-28T07:43:58;5.63;;;1.98;;
35699;SDS011;21818;51.078;12.108;2023-02-28T07:46:24;6.90;;;1.70;;
35699;SDS011;21818;51.078;12.108;2023-02-28T07:48:51;4.07;;;1.92;;
35699;SDS011;21818;51.078;12.108;2023-02-28T07:51:17;7.18;;;2.15;;
35699;SDS011;21818;51.078;12.108;2023-02-28T07:53:43;6.30;;;2.63;;
35699;SDS011;21818;51.078;12.108;2023-02-28T07:56:09;4.80;;;1.95;;
35699;SDS011;21818;51.078;12.108;2023-02-28T07:58:35;7.00;;;2.33;;
35699;SDS011;21818;51.078;12.108;2023-02-28T08:01:08;4.05;;;1.80;;
35699;SDS011;21818;51.078;12.108;2023-02-28T08:03:35;8.00;;;2.00;;
35699;SDS011;21818;51.078;12.108;2023-02-28T08:06:02;4.22;;;1.98;;
35699;SDS011;21818;51.078;12.108;2023-02-28T08:08:29;5.22;;;1.77;;
35699;SDS011;21818;51.078;12.108;2023-02-28T08:10:57;3.28;;;1.75;;
35699;SDS011;21818;51.078;12.108;2023-02-28T08:13:27;6.30;;;2.17;;
35699;SDS011;21818;51.078;12.108;2023-02-28T08:15:54;6.85;;;1.95;;
35699;SDS011;21818;51.078;12.108;2023-02-28T08:18:21;6.40;;;1.95;;
35699;SDS011;21818;51.078;12.108;2023-02-28T08:20:47;11.02;;;1.80;;
35699;SDS011;21818;51.078;12.108;2023-02-28T08:23:12;4.97;;;1.90;;
35699;SDS011;21818;51.078;12.108;2023-02-28T08:25:38;5.47;;;1.85;;
35699;SDS011;21818;51.078;12.108;2023-02-28T08:28:03;4.97;;;1.88;;
35699;SDS011;21818;51.078;12.108;2023-02-28T08:30:29;4.03;;;1.70;;
35699;SDS011;21818;51.078;12.108;2023-02-28T08:32:54;6.22;;;2.17;;
35699;SDS011;21818;51.078;12.108;2023-02-28T08:35:20;5.25;;;1.80;;
35699;SDS011;21818;51.078;12.108;2023-02-28T08:37:47;5.75;;;2.08;;
35699;SDS011;21818;51.078;12.108;2023-02-28T08:40:13;2.97;;;1.50;;
35699;SDS011;21818;51.078;12.108;2023-02-28T08:42:43;6.65;;;1.85;;
35699;SDS011;21818;51.078;12.108;2023-02-28T08:45:09;3.17;;;1.48;;
35699;SDS011;21818;51.078;12.108;2023-02-28T08:47:36;7.05;;;2.08;;
35699;SDS011;21818;51.078;12.108;2023-02-28T08:50:02;4.28;;;1.40;;
35699;SDS011;21818;51.078;12.108;2023-02-28T08:52:28;2.97;;;1.63;;
35699;SDS011;21818;51.078;12.108;2023-02-28T08:54:53;4.30;;;2.13;;
35699;SDS011;21818;51.078;12.108;2023-02-28T08:57:19;5.72;;;1.88;;
35699;SDS011;21818;51.078;12.108;2023-02-28T08:59:44;6.45;;;1.92;;
35699;SDS011;21818;51.078;12.108;2023-02-28T09:02:12;6.25;;;1.80;;
35699;SDS011;21818;51.078;12.108;2023-02-28T09:04:39;4.72;;;1.88;;
35699;SDS011;21818;51.078;12.108;2023-02-28T09:07:04;4.80;;;1.85;;
35699;SDS011;21818;51.078;12.108;2023-02-28T09:09:30;3.72;;;1.60;;
35699;SDS011;21818;51.078;12.108;2023-02-28T09:11:56;4.18;;;1.58;;
35699;SDS011;21818;51.078;12.108;2023-02-28T09:14:21;3.92;;;1.88;;
35699;SDS011;21818;51.078;12.108;2023-02-28T09:16:47;4.47;;;1.60;;
35699;SDS011;21818;51.078;12.108;2023-02-28T09:19:12;4.13;;;1.50;;
35699;SDS011;21818;51.078;12.108;2023-02-28T09:21:38;4.90;;;1.70;;
35699;SDS011;21818;51.078;12.108;2023-02-28T09:24:04;3.17;;;1.33;;
35699;SDS011;21818;51.078;12.108;2023-02-28T09:26:30;4.78;;;2.13;;
35699;SDS011;21818;51.078;12.108;2023-02-28T09:28:56;4.15;;;1.50;;
35699;SDS011;21818;51.078;12.108;2023-02-28T09:31:25;3.38;;;1.45;;
35699;SDS011;21818;51.078;12.108;2023-02-28T09:33:53;6.07;;;1.67;;
35699;SDS011;21818;51.078;12.108;2023-02-28T09:36:21;2.97;;;1.77;;
35699;SDS011;21818;51.078;12.108;2023-02-28T09:38:48;4.05;;;1.58;;
35699;SDS011;21818;51.078;12.108;2023-02-28T09:41:17;6.00;;;1.48;;
35699;SDS011;21818;51.078;12.108;2023-02-28T09:43:52;6.30;;;1.75;;
35699;SDS011;21818;51.078;12.108;2023-02-28T09:49:17;4.70;;;1.52;;
35699;SDS011;21818;51.078;12.108;2023-02-28T09:52:02;6.45;;;1.58;;
35699;SDS011;21818;51.078;12.108;2023-02-28T09:54:36;4.18;;;1.65;;
35699;SDS011;21818;51.078;12.108;2023-02-28T10:05:12;4.30;;;1.30;;
35699;SDS011;21818;51.078;12.108;2023-02-28T10:10:51;3.13;;;1.50;;
35699;SDS011;21818;51.078;12.108;2023-02-28T10:12:52;3.40;;;1.42;;
35699;SDS011;21818;51.078;12.108;2023-02-28T10:15:19;3.55;;;1.60;;
35699;SDS011;21818;51.078;12.108;2023-02-28T10:17:49;4.13;;;1.33;;
35699;SDS011;21818;51.078;12.108;2023-02-28T10:20:20;3.88;;;1.48;;
35699;SDS011;21818;51.078;12.108;2023-02-28T10:25:25;3.33;;;1.30;;
35699;SDS011;21818;51.078;12.108;2023-02-28T10:27:53;4.05;;;1.50;;
35699;SDS011;21818;51.078;12.108;2023-02-28T10:30:39;3.95;;;1.65;;
35699;SDS011;21818;51.078;12.108;2023-02-28T10:33:20;3.47;;;1.60;;
35699;SDS011;21818;51.078;12.108;2023-02-28T10:35:47;2.53;;;1.35;;
35699;SDS011;21818;51.078;12.108;2023-02-28T10:38:21;3.88;;;1.23;;
35699;SDS011;21818;51.078;12.108;2023-02-28T10:41:03;4.50;;;1.45;;
35699;SDS011;21818;51.078;12.108;2023-02-28T10:43:34;4.13;;;1.55;;
35699;SDS011;21818;51.078;12.108;2023-02-28T10:48:36;3.20;;;1.25;;
35699;SDS011;21818;51.078;12.108;2023-02-28T10:51:08;3.88;;;1.48;;
35699;SDS011;21818;51.078;12.108;2023-02-28T11:09:36;4.07;;;1.20;;
35699;SDS011;21818;51.078;12.108;2023-02-28T11:12:05;2.15;;;1.08;;
35699;SDS011;21818;51.078;12.108;2023-02-28T11:14:54;3.35;;;1.50;;
35699;SDS011;21818;51.078;12.108;2023-02-28T11:17:24;3.53;;;1.70;;
35699;SDS011;21818;51.078;12.108;2023-02-28T11:19:53;3.30;;;1.80;;
35699;SDS011;21818;51.078;12.108;2023-02-28T11:22:28;3.40;;;1.50;;
35699;SDS011;21818;51.078;12.108;2023-02-28T11:25:01;4.20;;;1.23;;
35699;SDS011;21818;51.078;12.108;2023-02-28T11:29:59;2.97;;;1.02;;
35699;SDS011;21818;51.078;12.108;2023-02-28T11:32:26;3.15;;;1.30;;
35699;SDS011;21818;51.078;12.108;2023-02-28T11:35:02;3.40;;;1.33;;
35699;SDS011;21818;51.078;12.108;2023-02-28T11:37:39;3.60;;;1.20;;
35699;SDS011;21818;51.078;12.108;2023-02-28T11:40:15;2.65;;;1.23;;
35699;SDS011;21818;51.078;12.108;2023-02-28T11:47:55;4.30;;;1.38;;
35699;SDS011;21818;51.078;12.108;2023-02-28T11:56:21;2.85;;;1.13;;
35699;SDS011;21818;51.078;12.108;2023-02-28T12:12:21;3.03;;;1.65;;
35699;SDS011;21818;51.078;12.108;2023-02-28T12:17:36;1.52;;;1.15;;
35699;SDS011;21818;51.078;12.108;2023-02-28T12:28:13;3.40;;;1.40;;
35699;SDS011;21818;51.078;12.108;2023-02-28T12:30:54;2.38;;;1.20;;
35699;SDS011;21818;51.078;12.108;2023-02-28T12:33:25;2.15;;;0.88;;
35699;SDS011;21818;51.078;12.108;2023-02-28T12:35:57;2.67;;;1.17;;
35699;SDS011;21818;51.078;12.108;2023-02-28T12:38:27;2.45;;;1.40;;
35699;SDS011;21818;51.078;12.108;2023-02-28T12:41:00;2.13;;;1.27;;
35699;SDS011;21818;51.078;12.108;2023-02-28T12:43:33;2.63;;;1.30;;
35699;SDS011;21818;51.078;12.108;2023-02-28T12:46:11;2.22;;;0.90;;
35699;SDS011;21818;51.078;12.108;2023-02-28T12:48:58;2.70;;;1.45;;
35699;SDS011;21818;51.078;12.108;2023-02-28T12:51:26;2.25;;;1.10;;
35699;SDS011;21818;51.078;12.108;2023-02-28T13:00:00;2.00;;;1.02;;
35699;SDS011;21818;51.078;12.108;2023-02-28T13:02:53;2.72;;;1.23;;
35699;SDS011;21818;51.078;12.108;2023-02-28T13:11:29;2.97;;;1.15;;
35699;SDS011;21818;51.078;12.108;2023-02-28T13:14:02;3.20;;;1.25;;
35699;SDS011;21818;51.078;12.108;2023-02-28T13:19:16;1.65;;;0.98;;
35699;SDS011;21818;51.078;12.108;2023-02-28T13:21:43;2.42;;;1.23;;
35699;SDS011;21818;51.078;12.108;2023-02-28T13:24:10;1.80;;;1.17;;
35699;SDS011;21818;51.078;12.108;2023-02-28T13:39:52;2.53;;;1.20;;
35699;SDS011;21818;51.078;12.108;2023-02-28T13:47:32;2.08;;;0.90;;
35699;SDS011;21818;51.078;12.108;2023-02-28T13:50:27;2.17;;;1.02;;
35699;SDS011;21818;51.078;12.108;2023-02-28T13:58:37;1.92;;;1.17;;
35699;SDS011;21818;51.078;12.108;2023-02-28T14:01:33;2.65;;;1.17;;
35699;SDS011;21818;51.078;12.108;2023-02-28T14:04:26;3.15;;;1.42;;
35699;SDS011;21818;51.078;12.108;2023-02-28T14:07:04;2.80;;;1.30;;
35699;SDS011;21818;51.078;12.108;2023-02-28T14:09:34;2.90;;;1.40;;
35699;SDS011;21818;51.078;12.108;2023-02-28T14:17:57;1.92;;;1.02;;
35699;SDS011;21818;51.078;12.108;2023-02-28T14:20:25;3.58;;;1.20;;
35699;SDS011;21818;51.078;12.108;2023-02-28T14:22:58;2.00;;;0.90;;
35699;SDS011;21818;51.078;12.108;2023-02-28T14:25:53;2.78;;;0.90;;
35699;SDS011;21818;51.078;12.108;2023-02-28T14:31:32;2.30;;;0.90;;
35699;SDS011;21818;51.078;12.108;2023-02-28T14:34:16;2.25;;;1.35;;
35699;SDS011;21818;51.078;12.108;2023-02-28T14:36:52;1.92;;;0.80;;
35699;SDS011;21818;51.078;12.108;2023-02-28T14:39:23;2.17;;;1.10;;
35699;SDS011;21818;51.078;12.108;2023-02-28T14:41:51;1.75;;;0.82;;
35699;SDS011;21818;51.078;12.108;2023-02-28T14:44:20;2.20;;;1.20;;
35699;SDS011;21818;51.078;12.108;2023-02-28T14:46:52;2.30;;;0.95;;
35699;SDS011;21818;51.078;12.108;2023-02-28T14:49:32;2.05;;;1.05;;
35699;SDS011;21818;51.078;12.108;2023-02-28T14:52:03;2.55;;;1.20;;
35699;SDS011;21818;51.078;12.108;2023-02-28T14:54:34;1.75;;;1.00;;
35699;SDS011;21818;51.078;12.108;2023-02-28T14:57:04;1.45;;;0.80;;
35699;SDS011;21818;51.078;12.108;2023-02-28T14:59:33;2.20;;;1.10;;
35699;SDS011;21818;51.078;12.108;2023-02-28T15:04:56;2.05;;;0.77;;
35699;SDS011;21818;51.078;12.108;2023-02-28T15:07:24;2.15;;;1.13;;
35699;SDS011;21818;51.078;12.108;2023-02-28T15:10:14;2.47;;;1.00;;
35699;SDS011;21818;51.078;12.108;2023-02-28T15:12:53;1.55;;;1.17;;
35699;SDS011;21818;51.078;12.108;2023-02-28T15:15:29;3.20;;;1.20;;
35699;SDS011;21818;51.078;12.108;2023-02-28T15:18:03;2.10;;;1.10;;
35699;SDS011;21818;51.078;12.108;2023-02-28T15:20:30;1.73;;;1.10;;
35699;SDS011;21818;51.078;12.108;2023-02-28T15:22:57;2.85;;;1.30;;
35699;SDS011;21818;51.078;12.108;2023-02-28T15:25:24;1.88;;;0.88;;
35699;SDS011;21818;51.078;12.108;2023-02-28T15:27:52;2.92;;;1.20;;
35699;SDS011;21818;51.078;12.108;2023-02-28T15:30:21;2.15;;;1.00;;
35699;SDS011;21818;51.078;12.108;2023-02-28T15:33:03;2.03;;;1.00;;
35699;SDS011;21818;51.078;12.108;2023-02-28T15:35:36;2.00;;;1.35;;
35699;SDS011;21818;51.078;12.108;2023-02-28T15:38:04;1.85;;;0.90;;
35699;SDS011;21818;51.078;12.108;2023-02-28T15:40:52;1.42;;;0.73;;
35699;SDS011;21818;51.078;12.108;2023-02-28T15:45:49;1.98;;;0.80;;
35699;SDS011;21818;51.078;12.108;2023-02-28T15:53:33;2.00;;;1.17;;
35699;SDS011;21818;51.078;12.108;2023-02-28T15:56:03;1.42;;;0.80;;
35699;SDS011;21818;51.078;12.108;2023-02-28T15:58:32;1.92;;;0.88;;
35699;SDS011;21818;51.078;12.108;2023-02-28T16:01:00;1.65;;;0.90;;
35699;SDS011;21818;51.078;12.108;2023-02-28T16:03:44;2.25;;;0.82;;
35699;SDS011;21818;51.078;12.108;2023-02-28T16:06:21;1.63;;;0.90;;
35699;SDS011;21818;51.078;12.108;2023-02-28T16:09:03;1.73;;;0.65;;
35699;SDS011;21818;51.078;12.108;2023-02-28T16:11:30;1.73;;;0.85;;
35699;SDS011;21818;51.078;12.108;2023-02-28T16:13:58;1.85;;;0.95;;
35699;SDS011;21818;51.078;12.108;2023-02-28T16:16:24;2.00;;;0.85;;
35699;SDS011;21818;51.078;12.108;2023-02-28T16:18:51;1.75;;;1.05;;
35699;SDS011;21818;51.078;12.108;2023-02-28T16:21:17;3.05;;;1.02;;
35699;SDS011;21818;51.078;12.108;2023-02-28T16:23:42;2.83;;;1.00;;
35699;SDS011;21818;51.078;12.108;2023-02-28T16:26:09;1.92;;;0.93;;
35699;SDS011;21818;51.078;12.108;2023-02-28T16:28:44;1.95;;;0.80;;
35699;SDS011;21818;51.078;12.108;2023-02-28T16:31:10;0.80;;;0.60;;
35699;SDS011;21818;51.078;12.108;2023-02-28T16:36:09;1.88;;;1.10;;
35699;SDS011;21818;51.078;12.108;2023-02-28T16:38:39;1.77;;;0.70;;
35699;SDS011;21818;51.078;12.108;2023-02-28T16:41:05;2.80;;;1.27;;
35699;SDS011;21818;51.078;12.108;2023-02-28T16:43:30;3.13;;;1.27;;
35699;SDS011;21818;51.078;12.108;2023-02-28T16:45:56;3.97;;;0.70;;
35699;SDS011;21818;51.078;12.108;2023-02-28T16:48:26;4.85;;;0.98;;
35699;SDS011;21818;51.078;12.108;2023-02-28T16:50:51;1.60;;;0.90;;
35699;SDS011;21818;51.078;12.108;2023-02-28T16:53:17;6.43;;;1.00;;
35699;SDS011;21818;51.078;12.108;2023-02-28T16:55:43;5.28;;;1.17;;
35699;SDS011;21818;51.078;12.108;2023-02-28T16:58:11;1.77;;;0.80;;
35699;SDS011;21818;51.078;12.108;2023-02-28T17:00:39;1.52;;;0.60;;
35699;SDS011;21818;51.078;12.108;2023-02-28T17:03:05;2.75;;;1.20;;
35699;SDS011;21818;51.078;12.108;2023-02-28T17:05:35;2.03;;;0.85;;
35699;SDS011;21818;51.078;12.108;2023-02-28T17:08:03;2.22;;;0.70;;
35699;SDS011;21818;51.078;12.108;2023-02-28T17:10:29;4.80;;;1.20;;
35699;SDS011;21818;51.078;12.108;2023-02-28T17:12:54;3.10;;;0.95;;
35699;SDS011;21818;51.078;12.108;2023-02-28T17:15:20;3.28;;;1.30;;
35699;SDS011;21818;51.078;12.108;2023-02-28T17:17:46;1.92;;;0.82;;
35699;SDS011;21818;51.078;12.108;2023-02-28T17:20:17;2.42;;;0.80;;
35699;SDS011;21818;51.078;12.108;2023-02-28T17:22:47;1.33;;;0.82;;
35699;SDS011;21818;51.078;12.108;2023-02-28T17:25:13;5.90;;;1.00;;
35699;SDS011;21818;51.078;12.108;2023-02-28T17:27:39;2.80;;;0.95;;
35699;SDS011;21818;51.078;12.108;2023-02-28T17:30:26;4.32;;;0.80;;
35699;SDS011;21818;51.078;12.108;2023-02-28T17:32:55;3.80;;;1.25;;
35699;SDS011;21818;51.078;12.108;2023-02-28T17:35:21;2.72;;;0.90;;
35699;SDS011;21818;51.078;12.108;2023-02-28T17:37:48;3.13;;;0.88;;
35699;SDS011;21818;51.078;12.108;2023-02-28T17:40:14;1.70;;;0.93;;
35699;SDS011;21818;51.078;12.108;2023-02-28T17:42:42;1.77;;;0.82;;